SABE/AEP METAR and TAF weather

Enter ICAO airport designator
Station Type Date Time Source
SABE METAR 2020/04/09 11:00 UTC NOAA

SABE 091100Z 18004KT 120V210 9999 SCT036 BKN100 14/09 Q1025 NOSIG


Station Type Date Time Source
SABE Decoded METAR 2020/04/09 11:00 UTC NOAA

Aeroparque Bs. As. Aerodrome, Argentina (SABE) 34-34S 058-25W 6M
Apr 09, 2020 - 07:00 AM EDT / 2020.04.09 1100 UTC
Wind: from the S (180 degrees) at 5 MPH (4 KT) (direction variable):0
Visibility: greater than 7 mile(s):0
Sky conditions: mostly cloudy
Temperature: 57 F (14 C)
Dew Point: 48 F (9 C)
Relative Humidity: 71%
Pressure (altimeter): 30.27 in. Hg (1025 hPa)
ob: SABE 091100Z 18004KT 120V210 9999 SCT036 BKN100 14/09 Q1025 NOSIG
cycle: 11

Station Type Date Time Source
SABE TAF 2020/04/09 12:06 UTC NOAA

TAF SABE 091100Z 0912/1012 18005KT 9999 SCT030 TX19/0918Z TN15/1009Z
BECMG 0913/0916 15010KT 9999 SCT025
BECMG 0918/0921 11010KT CAVOK
BECMG 1003/1006 11015KT 8000 BKN015

Example: see airport list